createdAt,value
2022-10-04T00:01:45.013Z,37.53
2022-10-04T00:04:42.014Z,35.03
2022-10-04T00:07:11.280Z,33.67
2022-10-04T00:09:55.868Z,36.63
2022-10-04T00:12:27.238Z,33.70
2022-10-04T00:14:57.498Z,31.88
2022-10-04T00:17:27.276Z,33.27
2022-10-04T00:19:55.297Z,32.83
2022-10-04T00:22:28.822Z,32.20
2022-10-04T00:25:07.480Z,33.13
2022-10-04T00:27:38.845Z,34.17
2022-10-04T00:30:05.250Z,32.80
2022-10-04T00:32:31.596Z,31.75
2022-10-04T00:35:00.211Z,32.65
2022-10-04T00:37:27.740Z,31.13
2022-10-04T00:40:26.288Z,33.35
2022-10-04T00:42:58.706Z,32.13
2022-10-04T00:45:41.312Z,30.13
2022-10-04T00:48:33.208Z,29.23
2022-10-04T00:51:07.136Z,29.48
2022-10-04T00:53:53.016Z,30.73
2022-10-04T00:56:37.214Z,30.38
2022-10-04T00:59:09.679Z,27.05
2022-10-04T01:01:37.873Z,29.60
2022-10-04T01:04:12.753Z,28.63
2022-10-04T01:06:41.724Z,27.15
2022-10-04T01:09:10.413Z,26.60
2022-10-04T01:11:50.657Z,28.30
2022-10-04T01:14:33.501Z,27.40
2022-10-04T01:16:59.990Z,24.85
2022-10-04T01:19:31.195Z,25.55
2022-10-04T01:24:34.032Z,25.67
2022-10-04T01:27:00.880Z,25.52
2022-10-04T01:29:29.872Z,28.27
2022-10-04T01:32:01.005Z,27.08
2022-10-04T01:36:57.845Z,26.80
2022-10-04T01:39:26.205Z,26.70
2022-10-04T01:42:05.110Z,26.25
2022-10-04T01:44:37.422Z,27.13
2022-10-04T01:47:09.762Z,27.88
2022-10-04T01:49:39.232Z,26.65
2022-10-04T01:52:10.696Z,27.83
2022-10-04T01:54:43.404Z,26.52
2022-10-04T01:57:27.578Z,28.42
2022-10-04T02:00:02.002Z,26.50
2022-10-04T02:02:35.466Z,25.13
2022-10-04T02:05:06.337Z,28.63
2022-10-04T02:07:34.833Z,24.25
2022-10-04T02:10:05.479Z,25.67
2022-10-04T02:12:34.040Z,26.27
2022-10-04T02:15:04.181Z,27.55
2022-10-04T02:17:33.772Z,29.00
2022-10-04T02:20:02.846Z,28.23
2022-10-04T02:22:30.437Z,26.95
2022-10-04T02:24:58.027Z,28.30
2022-10-04T02:27:31.603Z,27.90
2022-10-04T02:30:03.385Z,29.17
2022-10-04T02:32:51.275Z,26.92
2022-10-04T02:35:19.783Z,29.30
2022-10-04T02:37:50.718Z,28.20
2022-10-04T02:40:21.649Z,27.88
2022-10-04T02:43:11.221Z,25.52
2022-10-04T02:46:22.105Z,26.60
2022-10-04T02:48:58.831Z,27.77
2022-10-04T02:51:38.629Z,26.05
2022-10-04T02:54:25.049Z,26.25
2022-10-04T02:56:55.316Z,26.60
2022-10-04T02:59:22.516Z,26.37
2022-10-04T03:01:53.414Z,26.70
2022-10-04T03:04:26.822Z,27.10
2022-10-04T03:06:54.977Z,29.27
2022-10-04T03:09:27.423Z,27.35
2022-10-04T03:11:56.433Z,27.20
2022-10-04T03:14:26.637Z,26.85
2022-10-04T03:16:57.445Z,26.17
2022-10-04T03:19:26.862Z,25.58
2022-10-04T03:21:57.937Z,27.75
2022-10-04T03:24:30.166Z,24.88
2022-10-04T03:26:59.423Z,25.98
2022-10-04T03:29:30.230Z,25.35
2022-10-04T03:31:58.121Z,25.27
2022-10-04T03:34:46.689Z,25.95
2022-10-04T03:37:16.488Z,27.00
2022-10-04T03:39:49.192Z,25.77
2022-10-04T03:42:15.795Z,25.50
2022-10-04T03:44:47.326Z,24.02
2022-10-04T03:47:20.692Z,24.35
2022-10-04T03:49:51.030Z,25.73
2022-10-04T03:52:25.381Z,27.50
2022-10-04T03:54:55.128Z,25.70
2022-10-04T03:57:22.634Z,25.13
2022-10-04T03:59:50.269Z,23.98
2022-10-04T04:02:30.258Z,25.67
2022-10-04T04:05:21.316Z,24.38
2022-10-04T04:08:00.758Z,25.52
2022-10-04T04:10:33.979Z,24.10
2022-10-04T04:13:15.349Z,22.50
2022-10-04T04:15:43.345Z,23.55
2022-10-04T04:18:17.485Z,22.17
2022-10-04T04:20:44.593Z,23.17
2022-10-04T04:23:11.790Z,24.48
2022-10-04T04:25:41.180Z,23.42
2022-10-04T04:28:30.002Z,24.27
2022-10-04T04:31:09.250Z,22.35
2022-10-04T04:33:51.414Z,21.67
2022-10-04T04:36:17.900Z,21.70
2022-10-04T04:39:02.860Z,22.80
2022-10-04T04:41:33.763Z,20.52
2022-10-04T04:44:00.349Z,23.35
2022-10-04T04:46:29.044Z,22.05
2022-10-04T04:49:02.550Z,23.35
2022-10-04T04:51:31.585Z,22.10
2022-10-04T04:54:01.718Z,24.13
2022-10-04T04:56:30.544Z,22.30
2022-10-04T04:58:59.676Z,23.73
2022-10-04T05:01:44.668Z,22.08
2022-10-04T05:04:14.143Z,22.25
2022-10-04T05:06:43.672Z,20.00
2022-10-04T05:09:31.632Z,23.30
2022-10-04T05:12:18.074Z,24.38
2022-10-04T05:14:50.628Z,25.27
2022-10-04T05:17:24.293Z,23.00
2022-10-04T05:19:52.537Z,22.33
2022-10-04T05:22:23.132Z,22.73
2022-10-04T05:24:54.257Z,23.60
2022-10-04T05:30:10.239Z,22.00
2022-10-04T05:33:13.308Z,25.70
2022-10-04T05:36:11.798Z,23.77
2022-10-04T05:38:50.619Z,23.27
2022-10-04T05:41:33.346Z,24.08
2022-10-04T05:44:02.361Z,25.23
2022-10-04T05:46:31.157Z,25.08
2022-10-04T05:49:11.395Z,25.70
2022-10-04T05:52:27.734Z,25.30
2022-10-04T05:55:12.243Z,26.70
2022-10-04T05:58:00.477Z,27.00
2022-10-04T06:00:49.178Z,24.63
2022-10-04T06:03:30.676Z,25.75
2022-10-04T06:06:02.355Z,24.20
2022-10-04T06:08:54.300Z,23.15
2022-10-04T06:11:49.733Z,24.00
2022-10-04T06:15:03.733Z,18.67
2022-10-04T06:17:51.265Z,22.52
2022-10-04T06:21:12.067Z,18.63
2022-10-04T06:23:47.761Z,23.15
2022-10-04T06:26:21.635Z,21.45
2022-10-04T06:28:56.632Z,22.30
2022-10-04T06:31:25.917Z,20.45
2022-10-04T06:34:22.309Z,23.08
2022-10-04T06:36:48.665Z,22.13
2022-10-04T06:39:24.081Z,21.02
2022-10-04T06:42:33.849Z,22.48
2022-10-04T06:45:30.797Z,23.67
2022-10-04T06:48:23.224Z,21.80
2022-10-04T06:50:54.793Z,24.95
2022-10-04T06:53:51.362Z,22.52
2022-10-04T06:56:23.789Z,23.88
2022-10-04T06:59:28.602Z,25.05
2022-10-04T07:02:04.060Z,25.50
2022-10-04T07:05:06.475Z,27.83
2022-10-04T07:07:36.629Z,28.27
2022-10-04T07:10:05.554Z,28.35
2022-10-04T07:12:40.978Z,30.75
2022-10-04T07:15:19.555Z,27.98
2022-10-04T07:17:48.913Z,29.35
2022-10-04T07:20:22.764Z,29.58
2022-10-04T07:23:14.387Z,29.70
2022-10-04T07:25:51.976Z,27.95
2022-10-04T07:28:43.999Z,28.00
2022-10-04T07:31:27.265Z,30.75
2022-10-04T07:34:00.024Z,30.50
2022-10-04T07:36:39.819Z,28.63
2022-10-04T07:39:52.638Z,27.65
2022-10-04T07:42:25.752Z,28.98
2022-10-04T07:45:08.665Z,29.92
2022-10-04T07:47:35.236Z,30.55
2022-10-04T07:50:25.029Z,33.00
2022-10-04T07:53:09.188Z,33.45
2022-10-04T07:55:47.604Z,32.92
2022-10-04T07:58:16.706Z,34.17
2022-10-04T08:01:01.825Z,34.05
2022-10-04T08:04:00.067Z,34.10
2022-10-04T08:06:44.147Z,32.95
2022-10-04T08:09:23.317Z,33.63
2022-10-04T08:12:17.040Z,30.83
2022-10-04T08:15:12.272Z,31.40
2022-10-04T08:17:56.067Z,32.17
2022-10-04T08:20:32.621Z,28.50
2022-10-04T08:23:24.834Z,31.08
2022-10-04T08:26:12.691Z,28.48
2022-10-04T08:29:09.523Z,27.15
2022-10-04T08:32:13.201Z,31.92
2022-10-04T08:35:16.453Z,27.50
2022-10-04T08:37:54.819Z,30.27
2022-10-04T08:40:47.341Z,30.80
2022-10-04T08:43:30.604Z,31.67
2022-10-04T08:46:28.317Z,30.05
2022-10-04T08:49:38.302Z,30.67
2022-10-04T08:52:30.981Z,28.50
2022-10-04T08:55:21.024Z,33.38
2022-10-04T08:58:01.440Z,30.90
2022-10-04T09:00:46.866Z,34.03
2022-10-04T09:03:51.102Z,31.70
2022-10-04T09:06:38.191Z,33.50
2022-10-04T09:09:35.738Z,33.97
2022-10-04T09:12:37.504Z,32.65
2022-10-04T09:15:31.196Z,35.80
2022-10-04T09:18:12.976Z,32.97
2022-10-04T09:20:48.327Z,35.65
2022-10-04T09:23:23.800Z,33.75
2022-10-04T09:26:08.386Z,35.33
2022-10-04T09:29:22.417Z,34.55
2022-10-04T09:32:16.565Z,28.25
2022-10-04T09:35:24.213Z,31.92
2022-10-04T09:38:18.158Z,30.20
2022-10-04T09:40:58.466Z,27.95
2022-10-04T09:43:35.948Z,29.60
2022-10-04T09:46:23.185Z,31.58
2022-10-04T09:49:32.682Z,30.67
2022-10-04T09:52:16.177Z,28.80
2022-10-04T09:55:19.843Z,25.90
2022-10-04T09:58:22.917Z,26.70
2022-10-04T10:01:13.956Z,27.45
2022-10-04T10:04:08.766Z,28.73
2022-10-04T10:06:41.360Z,30.08
2022-10-04T10:09:18.370Z,28.25
2022-10-04T10:12:18.417Z,31.13
2022-10-04T10:15:17.630Z,30.85
2022-10-04T10:18:02.581Z,28.58
2022-10-04T10:20:47.920Z,28.10
2022-10-04T10:24:02.554Z,30.02
2022-10-04T10:26:58.000Z,31.98
2022-10-04T10:29:36.562Z,31.20
2022-10-04T10:32:19.125Z,29.25
2022-10-04T10:35:08.707Z,29.55
2022-10-04T10:37:45.699Z,30.33
2022-10-04T10:40:21.295Z,29.05
2022-10-04T10:43:07.992Z,28.95
2022-10-04T10:45:49.734Z,31.75
2022-10-04T10:48:33.542Z,34.13
2022-10-04T10:51:38.175Z,30.15
2022-10-04T10:54:42.584Z,28.13
2022-10-04T10:57:34.053Z,31.15
2022-10-04T11:00:18.173Z,31.90
2022-10-04T11:03:22.686Z,30.90
2022-10-04T11:06:07.233Z,29.23
2022-10-04T11:08:53.060Z,30.00
2022-10-04T11:11:34.765Z,28.55
2022-10-04T11:14:29.062Z,26.00
2022-10-04T11:16:56.710Z,28.25
2022-10-04T11:20:16.678Z,28.55
2022-10-04T11:23:02.043Z,26.90
2022-10-04T11:25:52.765Z,26.35
2022-10-04T11:28:56.723Z,27.88
2022-10-04T11:31:41.295Z,26.58
2022-10-04T11:34:22.855Z,28.50
2022-10-04T11:37:20.638Z,26.65
2022-10-04T11:40:55.399Z,27.45
2022-10-04T11:43:55.552Z,28.27
2022-10-04T11:46:37.097Z,28.02
2022-10-04T11:49:16.758Z,27.63
2022-10-04T11:52:20.799Z,26.83
2022-10-04T11:54:57.197Z,25.23
2022-10-04T11:57:36.677Z,26.45
2022-10-04T12:00:25.891Z,25.60
2022-10-04T12:03:16.063Z,27.02
2022-10-04T12:05:48.887Z,27.23
2022-10-04T12:08:37.359Z,27.30
2022-10-04T12:11:15.965Z,26.80
2022-10-04T12:14:04.031Z,27.02
2022-10-04T12:16:57.057Z,26.63
2022-10-04T12:19:32.446Z,25.75
2022-10-04T12:22:17.319Z,28.63
2022-10-04T12:25:12.906Z,27.33
2022-10-04T12:27:51.241Z,25.58
2022-10-04T12:30:36.752Z,27.02
2022-10-04T12:33:26.090Z,24.67
2022-10-04T12:36:08.343Z,26.25
2022-10-04T12:38:56.423Z,25.95
2022-10-04T12:41:35.948Z,24.60
2022-10-04T12:44:13.150Z,26.90
2022-10-04T12:46:59.952Z,27.50
2022-10-04T12:49:56.343Z,27.10
2022-10-04T12:52:27.064Z,25.88
2022-10-04T12:54:53.401Z,27.30
2022-10-04T12:57:20.159Z,25.55
2022-10-04T13:00:00.001Z,28.20
2022-10-04T13:02:57.353Z,26.90
2022-10-04T13:05:32.788Z,24.67
2022-10-04T13:08:15.654Z,26.42
2022-10-04T13:10:47.839Z,24.70
2022-10-04T13:13:36.060Z,26.45
2022-10-04T13:19:24.006Z,22.63
2022-10-04T13:21:58.860Z,24.20
2022-10-04T13:24:54.060Z,25.00
2022-10-04T13:27:38.398Z,25.50
2022-10-04T13:30:07.119Z,24.02
2022-10-04T13:33:14.153Z,26.00
2022-10-04T13:36:06.824Z,26.13
2022-10-04T13:38:54.343Z,23.98
2022-10-04T13:41:29.813Z,23.80
2022-10-04T13:44:15.260Z,25.17
2022-10-04T13:47:06.130Z,23.75
2022-10-04T13:49:34.657Z,26.33
2022-10-04T13:52:28.559Z,24.35
2022-10-04T13:55:23.296Z,23.15
2022-10-04T13:57:57.902Z,23.38
2022-10-04T14:01:01.795Z,25.40
2022-10-04T14:03:40.575Z,22.58
2022-10-04T14:06:34.619Z,22.20
2022-10-04T14:09:19.379Z,23.90
2022-10-04T14:12:04.114Z,23.83
2022-10-04T14:15:12.174Z,26.50
2022-10-04T14:17:56.798Z,26.05
2022-10-04T14:20:29.312Z,26.45
2022-10-04T14:22:58.726Z,25.65
2022-10-04T14:26:15.830Z,23.80
2022-10-04T14:28:52.991Z,25.45
2022-10-04T14:31:47.048Z,27.40
2022-10-04T14:34:47.528Z,23.48
2022-10-04T14:37:36.808Z,25.87
2022-10-04T14:40:18.479Z,23.10
2022-10-04T14:42:47.969Z,23.83
2022-10-04T14:45:43.528Z,24.60
2022-10-04T14:48:30.198Z,24.50
2022-10-04T14:51:28.729Z,22.52
2022-10-04T14:54:22.296Z,25.13
2022-10-04T14:57:01.706Z,22.67
2022-10-04T15:00:06.796Z,24.58
2022-10-04T15:02:33.162Z,25.17
2022-10-04T15:05:06.166Z,26.20
2022-10-04T15:07:37.421Z,26.88
2022-10-04T15:10:03.954Z,26.67
2022-10-04T15:12:52.001Z,27.38
2022-10-04T15:15:19.178Z,26.38
2022-10-04T15:17:51.285Z,25.75
2022-10-04T15:20:54.137Z,26.65
2022-10-04T15:23:38.660Z,24.98
2022-10-04T15:26:19.936Z,25.30
2022-10-04T15:28:48.914Z,24.77
2022-10-04T15:31:27.275Z,26.20
2022-10-04T15:34:03.129Z,26.35
2022-10-04T15:36:52.700Z,26.05
2022-10-04T15:39:58.720Z,24.83
2022-10-04T15:42:37.027Z,23.30
2022-10-04T15:45:18.684Z,23.83
2022-10-04T15:48:11.698Z,24.52
2022-10-04T15:50:59.595Z,26.95
2022-10-04T15:53:50.289Z,24.17
2022-10-04T15:56:33.119Z,23.65
2022-10-04T15:58:59.471Z,24.42
2022-10-04T16:01:55.087Z,23.55
2022-10-04T16:04:33.197Z,22.92
2022-10-04T16:07:41.086Z,20.73
2022-10-04T16:10:39.423Z,21.90
2022-10-04T16:13:56.971Z,22.92
2022-10-04T16:16:29.054Z,20.38
2022-10-04T16:19:20.087Z,22.77
2022-10-04T16:24:22.021Z,21.13
2022-10-04T16:26:50.989Z,23.73
2022-10-04T16:29:28.012Z,22.40
2022-10-04T16:32:21.298Z,22.42
2022-10-04T16:35:03.298Z,27.83
2022-10-04T16:37:57.605Z,24.27
2022-10-04T16:40:30.152Z,23.95
2022-10-04T16:43:01.856Z,22.55
2022-10-04T16:45:48.651Z,22.95
2022-10-04T16:48:30.145Z,21.15
2022-10-04T16:51:04.932Z,23.75
2022-10-04T16:54:05.840Z,22.42
2022-10-04T16:56:56.391Z,22.42
2022-10-04T17:00:07.482Z,21.50
2022-10-04T17:02:49.121Z,22.55
2022-10-04T17:05:35.846Z,23.73
2022-10-04T17:08:17.810Z,23.35
2022-10-04T17:10:49.908Z,23.60
2022-10-04T17:13:21.028Z,23.02
2022-10-04T17:16:07.536Z,22.55
2022-10-04T17:18:55.404Z,20.98
2022-10-04T17:21:32.758Z,22.77
2022-10-04T17:24:10.169Z,21.85
2022-10-04T17:27:00.813Z,24.52
2022-10-04T17:29:36.949Z,22.30
2022-10-04T17:32:03.272Z,23.77
2022-10-04T17:34:36.177Z,21.55
2022-10-04T17:37:06.076Z,22.73
2022-10-04T17:39:47.083Z,29.95
2022-10-04T17:42:31.864Z,25.38
2022-10-04T17:45:16.977Z,24.75
2022-10-04T17:48:19.036Z,26.27
2022-10-04T17:51:39.345Z,24.23
2022-10-04T17:54:39.330Z,26.25
2022-10-04T17:57:05.673Z,24.40
2022-10-04T17:59:47.890Z,27.58
2022-10-04T18:02:42.052Z,29.15
2022-10-04T18:05:26.822Z,25.35
2022-10-04T18:08:08.018Z,27.70
2022-10-04T18:10:52.873Z,26.77
2022-10-04T18:13:27.875Z,25.23
2022-10-04T18:15:57.268Z,27.42
2022-10-04T18:18:29.166Z,27.40
2022-10-04T18:20:55.481Z,26.52
2022-10-04T18:23:28.276Z,26.67
2022-10-04T18:25:59.511Z,26.45
2022-10-04T18:28:26.007Z,27.30
2022-10-04T18:30:52.448Z,26.00
2022-10-04T18:33:26.625Z,25.05
2022-10-04T18:35:59.448Z,26.65
2022-10-04T18:38:41.044Z,27.70
2022-10-04T18:41:18.991Z,24.90
2022-10-04T18:44:04.838Z,27.10
2022-10-04T18:46:39.797Z,24.33
2022-10-04T18:49:16.888Z,27.45
2022-10-04T18:52:10.703Z,29.38
2022-10-04T18:54:58.904Z,27.48
2022-10-04T18:57:56.435Z,27.48
2022-10-04T19:00:41.656Z,30.98
2022-10-04T19:03:45.004Z,31.05
2022-10-04T19:06:20.923Z,29.98
2022-10-04T19:09:09.044Z,32.58
2022-10-04T19:11:51.800Z,31.92
2022-10-04T19:14:26.024Z,31.70
2022-10-04T19:16:57.007Z,34.60
2022-10-04T19:22:35.037Z,32.45
2022-10-04T19:25:07.645Z,30.90
2022-10-04T19:27:45.157Z,32.35
2022-10-04T19:30:25.216Z,34.08
2022-10-04T19:33:11.648Z,35.22
2022-10-04T19:36:06.037Z,35.33
2022-10-04T19:38:57.373Z,30.95
2022-10-04T19:41:51.232Z,34.35
2022-10-04T19:45:19.369Z,36.08
2022-10-04T19:47:58.600Z,33.13
2022-10-04T19:51:04.425Z,32.92
2022-10-04T19:53:45.173Z,36.22
2022-10-04T19:56:23.741Z,37.15
2022-10-04T19:59:09.154Z,35.05
2022-10-04T20:01:36.486Z,35.17
2022-10-04T20:04:30.278Z,34.72
2022-10-04T20:06:58.672Z,36.00
2022-10-04T20:09:36.964Z,39.58
2022-10-04T20:12:05.958Z,37.20
2022-10-04T20:14:32.365Z,35.80
2022-10-04T20:17:00.690Z,37.65
2022-10-04T20:19:27.047Z,34.25
2022-10-04T20:22:13.862Z,38.53
2022-10-04T20:24:40.259Z,32.53
2022-10-04T20:27:21.927Z,35.20
2022-10-04T20:29:51.714Z,34.20
2022-10-04T20:32:26.910Z,35.75
2022-10-04T20:34:54.986Z,37.90
2022-10-04T20:37:21.728Z,39.92
2022-10-04T20:39:48.058Z,35.55
2022-10-04T20:42:33.541Z,35.75
2022-10-04T20:45:08.993Z,35.78
2022-10-04T20:47:39.313Z,33.80
2022-10-04T20:50:08.020Z,34.55
2022-10-04T20:52:36.841Z,36.47
2022-10-04T20:55:15.480Z,33.80
2022-10-04T20:57:41.920Z,32.03
2022-10-04T21:00:18.357Z,33.78
2022-10-04T21:02:44.839Z,33.65
2022-10-04T21:05:17.392Z,33.70
2022-10-04T21:07:43.812Z,34.42
2022-10-04T21:10:20.218Z,36.42
2022-10-04T21:12:47.182Z,36.63
2022-10-04T21:15:16.637Z,35.13
2022-10-04T21:18:07.164Z,34.17
2022-10-04T21:20:49.434Z,35.95
2022-10-04T21:23:18.568Z,34.28
2022-10-04T21:25:45.066Z,38.65
2022-10-04T21:28:29.990Z,40.47
2022-10-04T21:30:56.608Z,38.95
2022-10-04T21:33:23.011Z,35.47
2022-10-04T21:35:51.486Z,37.50
2022-10-04T21:38:18.668Z,35.13
2022-10-04T21:40:45.194Z,35.33
2022-10-04T21:43:11.686Z,38.15
2022-10-04T21:45:38.132Z,39.58
2022-10-04T21:48:04.553Z,45.35
2022-10-04T21:50:30.972Z,42.95
2022-10-04T21:52:59.617Z,44.28
2022-10-04T21:55:26.031Z,41.70
2022-10-04T21:57:52.423Z,43.67
2022-10-04T22:00:18.949Z,47.25
2022-10-04T22:02:45.441Z,45.35
2022-10-04T22:05:11.922Z,51.55
2022-10-04T22:07:38.383Z,49.08
2022-10-04T22:10:05.300Z,51.95
2022-10-04T22:12:31.723Z,52.85
2022-10-04T22:14:58.133Z,49.83
2022-10-04T22:17:24.619Z,50.10
2022-10-04T22:19:52.895Z,47.30
2022-10-04T22:22:19.352Z,52.72
2022-10-04T22:24:45.749Z,50.83
2022-10-04T22:27:17.366Z,51.63
2022-10-04T22:29:44.796Z,51.65
2022-10-04T22:32:26.049Z,47.95
2022-10-04T22:37:29.701Z,48.33
2022-10-04T22:39:56.141Z,52.53
2022-10-04T22:42:27.640Z,48.40
2022-10-04T22:44:54.095Z,47.35
2022-10-04T22:47:20.532Z,48.17
2022-10-04T22:49:49.885Z,47.90
2022-10-04T22:52:17.992Z,49.78
2022-10-04T22:54:47.000Z,49.72
2022-10-04T22:57:15.509Z,47.50
2022-10-04T22:59:44.979Z,47.70
2022-10-04T23:02:15.761Z,45.92
2022-10-04T23:04:45.782Z,45.55
2022-10-04T23:07:12.227Z,48.92
2022-10-04T23:09:38.642Z,47.05
2022-10-04T23:12:08.596Z,46.78
2022-10-04T23:14:38.951Z,43.10
2022-10-04T23:17:23.478Z,45.42
2022-10-04T23:19:52.833Z,44.50
2022-10-04T23:22:25.557Z,46.30
2022-10-04T23:24:52.296Z,45.42
2022-10-04T23:27:18.768Z,44.47
2022-10-04T23:29:49.479Z,44.28
2022-10-04T23:32:18.587Z,43.90
2022-10-04T23:34:47.959Z,43.03
2022-10-04T23:37:24.093Z,43.95
2022-10-04T23:39:51.109Z,45.10
2022-10-04T23:42:31.874Z,42.40
2022-10-04T23:45:00.014Z,41.35
2022-10-04T23:47:34.914Z,43.50
2022-10-04T23:50:01.973Z,48.83
2022-10-04T23:52:37.125Z,43.10
2022-10-04T23:55:18.485Z,43.75
2022-10-04T23:57:45.058Z,40.63
